sensor_id;sensor_type;location;lat;lon;timestamp;pressure;altitude;pressure_sealevel;temperature;humidity
70730;BME280;58315;53.336;55.932;2023-05-21T00:02:18;100481.75;;;15.64;41.01
70730;BME280;58315;53.336;55.932;2023-05-21T00:04:45;100476.69;;;15.61;41.00
70730;BME280;58315;53.336;55.932;2023-05-21T00:07:11;100474.91;;;15.61;41.17
70730;BME280;58315;53.336;55.932;2023-05-21T00:09:38;100483.47;;;15.55;41.61
70730;BME280;58315;53.336;55.932;2023-05-21T00:12:05;100481.50;;;15.57;41.77
70730;BME280;58315;53.336;55.932;2023-05-21T00:14:31;100481.66;;;15.56;41.76
70730;BME280;58315;53.336;55.932;2023-05-21T00:16:57;100486.28;;;15.54;41.71
70730;BME280;58315;53.336;55.932;2023-05-21T00:19:24;100491.94;;;15.51;42.07
70730;BME280;58315;53.336;55.932;2023-05-21T00:21:50;100495.56;;;15.50;41.99
70730;BME280;58315;53.336;55.932;2023-05-21T00:24:16;100496.38;;;15.50;41.61
70730;BME280;58315;53.336;55.932;2023-05-21T00:26:42;100489.56;;;15.48;41.59
70730;BME280;58315;53.336;55.932;2023-05-21T00:29:08;100497.00;;;15.44;41.45
70730;BME280;58315;53.336;55.932;2023-05-21T00:31:34;100495.16;;;15.44;41.53
70730;BME280;58315;53.336;55.932;2023-05-21T00:34:00;100498.66;;;15.45;41.64
70730;BME280;58315;53.336;55.932;2023-05-21T00:36:28;100505.66;;;15.46;41.46
70730;BME280;58315;53.336;55.932;2023-05-21T00:38:55;100505.53;;;15.48;41.54
70730;BME280;58315;53.336;55.932;2023-05-21T00:41:21;100510.41;;;15.52;41.11
70730;BME280;58315;53.336;55.932;2023-05-21T00:43:48;100517.13;;;15.56;41.02
70730;BME280;58315;53.336;55.932;2023-05-21T00:46:17;100518.50;;;15.60;39.46
70730;BME280;58315;53.336;55.932;2023-05-21T00:48:45;100523.28;;;15.57;40.22
70730;BME280;58315;53.336;55.932;2023-05-21T00:51:13;100524.28;;;15.56;39.48
70730;BME280;58315;53.336;55.932;2023-05-21T00:53:40;100524.44;;;15.54;38.75
70730;BME280;58315;53.336;55.932;2023-05-21T00:56:07;100523.88;;;15.51;38.59
70730;BME280;58315;53.336;55.932;2023-05-21T00:58:33;100529.84;;;15.62;39.07
70730;BME280;58315;53.336;55.932;2023-05-21T01:01:00;100532.44;;;15.82;38.92
70730;BME280;58315;53.336;55.932;2023-05-21T01:03:29;100537.66;;;16.19;38.70
70730;BME280;58315;53.336;55.932;2023-05-21T01:05:55;100544.28;;;16.69;38.21
70730;BME280;58315;53.336;55.932;2023-05-21T01:08:25;100544.19;;;17.22;37.80
70730;BME280;58315;53.336;55.932;2023-05-21T01:10:55;100539.38;;;17.68;37.06
70730;BME280;58315;53.336;55.932;2023-05-21T01:13:23;100539.06;;;18.14;36.65
70730;BME280;58315;53.336;55.932;2023-05-21T01:15:49;100537.59;;;18.36;35.56
70730;BME280;58315;53.336;55.932;2023-05-21T01:18:16;100547.28;;;18.28;34.76
70730;BME280;58315;53.336;55.932;2023-05-21T01:20:45;100544.53;;;17.96;34.84
70730;BME280;58315;53.336;55.932;2023-05-21T01:23:15;100543.84;;;17.94;35.14
70730;BME280;58315;53.336;55.932;2023-05-21T01:25:42;100550.69;;;17.54;35.22
70730;BME280;58315;53.336;55.932;2023-05-21T01:28:10;100543.13;;;17.15;36.72
70730;BME280;58315;53.336;55.932;2023-05-21T01:30:38;100551.47;;;17.12;36.25
70730;BME280;58315;53.336;55.932;2023-05-21T01:33:17;100550.09;;;17.08;36.48
70730;BME280;58315;53.336;55.932;2023-05-21T01:36:20;100545.75;;;17.07;36.52
70730;BME280;58315;53.336;55.932;2023-05-21T01:38:59;100555.91;;;17.03;36.57
70730;BME280;58315;53.336;55.932;2023-05-21T01:41:28;100552.44;;;16.85;37.04
70730;BME280;58315;53.336;55.932;2023-05-21T01:43:58;100549.97;;;16.92;37.18
70730;BME280;58315;53.336;55.932;2023-05-21T01:46:26;100560.41;;;17.03;37.19
70730;BME280;58315;53.336;55.932;2023-05-21T01:48:55;100560.31;;;17.13;37.02
70730;BME280;58315;53.336;55.932;2023-05-21T01:51:22;100561.13;;;17.13;36.90
70730;BME280;58315;53.336;55.932;2023-05-21T01:53:49;100562.09;;;17.04;37.20
70730;BME280;58315;53.336;55.932;2023-05-21T01:56:15;100557.31;;;17.16;37.03
70730;BME280;58315;53.336;55.932;2023-05-21T01:58:41;100556.53;;;17.23;37.10
70730;BME280;58315;53.336;55.932;2023-05-21T02:01:08;100557.19;;;17.25;37.71
70730;BME280;58315;53.336;55.932;2023-05-21T02:03:35;100562.00;;;17.22;37.92
70730;BME280;58315;53.336;55.932;2023-05-21T02:06:01;100561.56;;;17.26;37.61
70730;BME280;58315;53.336;55.932;2023-05-21T02:08:28;100562.09;;;17.30;37.41
70730;BME280;58315;53.336;55.932;2023-05-21T02:10:54;100557.28;;;17.33;37.60
70730;BME280;58315;53.336;55.932;2023-05-21T02:13:21;100565.63;;;17.39;37.56
70730;BME280;58315;53.336;55.932;2023-05-21T02:15:48;100568.50;;;17.45;37.80
70730;BME280;58315;53.336;55.932;2023-05-21T02:18:14;100572.22;;;17.52;37.83
70730;BME280;58315;53.336;55.932;2023-05-21T02:21:01;100572.75;;;17.56;37.88
70730;BME280;58315;53.336;55.932;2023-05-21T02:23:27;100571.44;;;17.68;37.95
70730;BME280;58315;53.336;55.932;2023-05-21T02:25:53;100564.63;;;17.74;38.06
70730;BME280;58315;53.336;55.932;2023-05-21T02:28:19;100572.84;;;17.80;37.84
70730;BME280;58315;53.336;55.932;2023-05-21T02:30:46;100569.03;;;17.83;37.99
70730;BME280;58315;53.336;55.932;2023-05-21T02:33:15;100572.25;;;17.95;38.07
70730;BME280;58315;53.336;55.932;2023-05-21T02:35:41;100579.22;;;17.88;38.35
70730;BME280;58315;53.336;55.932;2023-05-21T02:38:08;100575.41;;;17.90;38.30
70730;BME280;58315;53.336;55.932;2023-05-21T02:40:35;100577.78;;;18.01;38.22
70730;BME280;58315;53.336;55.932;2023-05-21T02:43:01;100584.66;;;18.12;38.40
70730;BME280;58315;53.336;55.932;2023-05-21T02:45:30;100586.22;;;18.23;37.79
70730;BME280;58315;53.336;55.932;2023-05-21T02:47:56;100581.38;;;18.35;37.42
70730;BME280;58315;53.336;55.932;2023-05-21T02:50:22;100584.25;;;18.49;37.05
70730;BME280;58315;53.336;55.932;2023-05-21T02:52:57;100579.91;;;18.65;37.13
70730;BME280;58315;53.336;55.932;2023-05-21T02:55:25;100584.03;;;19.41;37.32
70730;BME280;58315;53.336;55.932;2023-05-21T02:57:51;100582.00;;;20.99;35.86
70730;BME280;58315;53.336;55.932;2023-05-21T03:00:17;100586.88;;;22.43;33.66
70730;BME280;58315;53.336;55.932;2023-05-21T03:02:44;100585.91;;;23.85;32.18
70730;BME280;58315;53.336;55.932;2023-05-21T03:05:10;100590.72;;;25.03;29.91
70730;BME280;58315;53.336;55.932;2023-05-21T03:07:36;100594.91;;;26.04;28.50
70730;BME280;58315;53.336;55.932;2023-05-21T03:10:02;100594.38;;;26.90;28.09
70730;BME280;58315;53.336;55.932;2023-05-21T03:12:31;100593.09;;;27.61;26.96
70730;BME280;58315;53.336;55.932;2023-05-21T03:14:58;100594.31;;;28.02;26.68
70730;BME280;58315;53.336;55.932;2023-05-21T03:17:28;100595.50;;;28.67;26.21
70730;BME280;58315;53.336;55.932;2023-05-21T03:19:54;100595.25;;;29.22;25.62
70730;BME280;58315;53.336;55.932;2023-05-21T03:22:20;100601.13;;;29.77;25.02
70730;BME280;58315;53.336;55.932;2023-05-21T03:24:46;100594.09;;;29.93;23.85
70730;BME280;58315;53.336;55.932;2023-05-21T03:27:14;100600.00;;;30.31;23.66
70730;BME280;58315;53.336;55.932;2023-05-21T03:29:42;100593.66;;;30.87;23.36
70730;BME280;58315;53.336;55.932;2023-05-21T03:32:09;100600.09;;;31.32;22.74
70730;BME280;58315;53.336;55.932;2023-05-21T03:34:35;100600.19;;;31.59;22.77
70730;BME280;58315;53.336;55.932;2023-05-21T03:37:02;100603.91;;;31.91;22.00
70730;BME280;58315;53.336;55.932;2023-05-21T03:39:29;100606.34;;;32.64;21.51
70730;BME280;58315;53.336;55.932;2023-05-21T03:41:56;100613.13;;;32.88;21.40
70730;BME280;58315;53.336;55.932;2023-05-21T03:44:31;100608.75;;;32.87;20.19
70730;BME280;58315;53.336;55.932;2023-05-21T03:47:15;100617.41;;;32.79;19.51
70730;BME280;58315;53.336;55.932;2023-05-21T03:49:41;100620.44;;;33.52;19.95
70730;BME280;58315;53.336;55.932;2023-05-21T03:52:08;100622.34;;;33.99;19.66
70730;BME280;58315;53.336;55.932;2023-05-21T03:54:34;100623.94;;;33.95;19.03
70730;BME280;58315;53.336;55.932;2023-05-21T03:57:04;100630.13;;;34.38;19.44
70730;BME280;58315;53.336;55.932;2023-05-21T03:59:32;100623.34;;;34.56;18.27
70730;BME280;58315;53.336;55.932;2023-05-21T04:01:59;100623.88;;;34.58;18.91
70730;BME280;58315;53.336;55.932;2023-05-21T04:04:25;100636.78;;;34.88;17.62
70730;BME280;58315;53.336;55.932;2023-05-21T04:06:54;100631.28;;;35.24;18.18
70730;BME280;58315;53.336;55.932;2023-05-21T04:09:21;100624.16;;;34.97;17.60
70730;BME280;58315;53.336;55.932;2023-05-21T04:11:47;100620.31;;;35.19;18.30
70730;BME280;58315;53.336;55.932;2023-05-21T04:14:14;100622.16;;;35.69;18.13
70730;BME280;58315;53.336;55.932;2023-05-21T04:16:40;100622.41;;;35.68;18.23
70730;BME280;58315;53.336;55.932;2023-05-21T04:19:08;100619.69;;;36.22;18.33
70730;BME280;58315;53.336;55.932;2023-05-21T04:21:35;100624.03;;;36.34;17.48
70730;BME280;58315;53.336;55.932;2023-05-21T04:24:02;100622.25;;;36.58;17.79
70730;BME280;58315;53.336;55.932;2023-05-21T04:26:45;100618.69;;;36.53;17.54
70730;BME280;58315;53.336;55.932;2023-05-21T04:29:13;100628.31;;;36.55;17.91
70730;BME280;58315;53.336;55.932;2023-05-21T04:31:44;100620.75;;;36.71;17.85
70730;BME280;58315;53.336;55.932;2023-05-21T04:34:12;100619.19;;;36.94;18.12
70730;BME280;58315;53.336;55.932;2023-05-21T04:36:38;100623.91;;;36.93;18.15
70730;BME280;58315;53.336;55.932;2023-05-21T04:39:04;100615.69;;;37.47;17.87
70730;BME280;58315;53.336;55.932;2023-05-21T04:41:31;100614.81;;;37.22;17.10
70730;BME280;58315;53.336;55.932;2023-05-21T04:43:57;100610.34;;;37.55;17.27
70730;BME280;58315;53.336;55.932;2023-05-21T04:46:27;100609.66;;;37.39;16.70
70730;BME280;58315;53.336;55.932;2023-05-21T04:48:53;100615.00;;;37.60;17.27
70730;BME280;58315;53.336;55.932;2023-05-21T04:51:23;100621.47;;;38.36;16.61
70730;BME280;58315;53.336;55.932;2023-05-21T04:53:51;100613.28;;;38.82;16.45
70730;BME280;58315;53.336;55.932;2023-05-21T04:56:19;100616.06;;;38.64;15.81
70730;BME280;58315;53.336;55.932;2023-05-21T04:58:46;100607.38;;;38.89;15.99
70730;BME280;58315;53.336;55.932;2023-05-21T05:01:14;100613.75;;;39.03;16.44
70730;BME280;58315;53.336;55.932;2023-05-21T05:03:40;100620.50;;;39.11;15.94
70730;BME280;58315;53.336;55.932;2023-05-21T05:06:07;100611.72;;;38.57;15.91
70730;BME280;58315;53.336;55.932;2023-05-21T05:08:33;100613.72;;;38.90;15.99
70730;BME280;58315;53.336;55.932;2023-05-21T05:11:00;100615.63;;;38.56;16.68
70730;BME280;58315;53.336;55.932;2023-05-21T05:13:27;100608.09;;;39.27;16.34
70730;BME280;58315;53.336;55.932;2023-05-21T05:15:53;100605.72;;;39.35;16.37
70730;BME280;58315;53.336;55.932;2023-05-21T05:18:20;100609.13;;;39.73;16.31
70730;BME280;58315;53.336;55.932;2023-05-21T05:20:46;100611.97;;;39.95;14.67
70730;BME280;58315;53.336;55.932;2023-05-21T05:23:13;100617.94;;;39.01;14.95
70730;BME280;58315;53.336;55.932;2023-05-21T05:25:40;100604.97;;;39.15;15.35
70730;BME280;58315;53.336;55.932;2023-05-21T05:28:08;100614.84;;;39.76;15.16
70730;BME280;58315;53.336;55.932;2023-05-21T05:30:34;100610.53;;;39.84;14.87
70730;BME280;58315;53.336;55.932;2023-05-21T05:33:12;100609.38;;;40.13;14.63
70730;BME280;58315;53.336;55.932;2023-05-21T05:35:38;100601.88;;;40.72;14.81
70730;BME280;58315;53.336;55.932;2023-05-21T05:38:05;100599.75;;;41.23;14.45
70730;BME280;58315;53.336;55.932;2023-05-21T05:40:33;100601.91;;;41.34;14.10
70730;BME280;58315;53.336;55.932;2023-05-21T05:42:59;100601.19;;;40.89;13.64
70730;BME280;58315;53.336;55.932;2023-05-21T05:45:25;100592.06;;;41.19;13.86
70730;BME280;58315;53.336;55.932;2023-05-21T05:47:52;100599.59;;;41.67;13.87
70730;BME280;58315;53.336;55.932;2023-05-21T05:50:18;100585.56;;;41.24;13.71
70730;BME280;58315;53.336;55.932;2023-05-21T05:52:45;100605.81;;;39.85;12.98
70730;BME280;58315;53.336;55.932;2023-05-21T05:55:11;100589.75;;;37.48;12.88
70730;BME280;58315;53.336;55.932;2023-05-21T05:57:38;100592.81;;;35.34;13.63
70730;BME280;58315;53.336;55.932;2023-05-21T06:00:09;100578.56;;;34.30;13.97
70730;BME280;58315;53.336;55.932;2023-05-21T06:02:38;100587.56;;;33.47;14.81
70730;BME280;58315;53.336;55.932;2023-05-21T06:05:05;100583.31;;;33.77;14.51
70730;BME280;58315;53.336;55.932;2023-05-21T06:07:32;100592.31;;;34.81;14.72
70730;BME280;58315;53.336;55.932;2023-05-21T06:09:58;100586.00;;;35.06;13.59
70730;BME280;58315;53.336;55.932;2023-05-21T06:12:24;100581.34;;;35.01;13.99
70730;BME280;58315;53.336;55.932;2023-05-21T06:14:50;100592.31;;;34.86;13.66
70730;BME280;58315;53.336;55.932;2023-05-21T06:17:17;100587.84;;;33.51;14.49
70730;BME280;58315;53.336;55.932;2023-05-21T06:19:43;100587.91;;;32.86;14.58
70730;BME280;58315;53.336;55.932;2023-05-21T06:22:10;100569.59;;;32.28;14.82
70730;BME280;58315;53.336;55.932;2023-05-21T06:24:37;100580.44;;;31.74;15.30
70730;BME280;58315;53.336;55.932;2023-05-21T06:27:03;100592.00;;;31.03;16.01
70730;BME280;58315;53.336;55.932;2023-05-21T06:29:30;100586.91;;;30.90;16.03
70730;BME280;58315;53.336;55.932;2023-05-21T06:31:56;100585.50;;;30.42;16.01
70730;BME280;58315;53.336;55.932;2023-05-21T06:34:22;100588.50;;;30.00;16.06
70730;BME280;58315;53.336;55.932;2023-05-21T06:36:48;100580.06;;;29.61;16.20
70730;BME280;58315;53.336;55.932;2023-05-21T06:39:14;100577.69;;;29.53;16.30
70730;BME280;58315;53.336;55.932;2023-05-21T06:41:40;100581.00;;;29.55;16.60
70730;BME280;58315;53.336;55.932;2023-05-21T06:44:23;100591.91;;;29.55;17.47
70730;BME280;58315;53.336;55.932;2023-05-21T06:47:02;100577.59;;;29.13;16.94
70730;BME280;58315;53.336;55.932;2023-05-21T06:49:30;100587.91;;;29.22;17.24
70730;BME280;58315;53.336;55.932;2023-05-21T06:51:56;100578.97;;;28.92;16.62
70730;BME280;58315;53.336;55.932;2023-05-21T06:54:22;100579.03;;;28.50;16.82
70730;BME280;58315;53.336;55.932;2023-05-21T06:56:49;100583.28;;;28.46;16.45
70730;BME280;58315;53.336;55.932;2023-05-21T06:59:18;100575.03;;;28.52;16.81
70730;BME280;58315;53.336;55.932;2023-05-21T07:01:44;100574.34;;;28.80;17.23
70730;BME280;58315;53.336;55.932;2023-05-21T07:04:10;100579.44;;;28.89;17.28
70730;BME280;58315;53.336;55.932;2023-05-21T07:06:37;100582.25;;;28.70;17.19
70730;BME280;58315;53.336;55.932;2023-05-21T07:09:03;100580.09;;;28.49;17.39
70730;BME280;58315;53.336;55.932;2023-05-21T07:11:31;100573.88;;;28.60;17.75
70730;BME280;58315;53.336;55.932;2023-05-21T07:13:58;100579.94;;;28.86;18.27
70730;BME280;58315;53.336;55.932;2023-05-21T07:16:30;100581.22;;;28.83;17.85
70730;BME280;58315;53.336;55.932;2023-05-21T07:18:57;100579.31;;;28.72;18.07
70730;BME280;58315;53.336;55.932;2023-05-21T07:21:23;100576.34;;;28.62;18.08
70730;BME280;58315;53.336;55.932;2023-05-21T07:23:51;100585.28;;;28.20;17.41
70730;BME280;58315;53.336;55.932;2023-05-21T07:26:17;100585.56;;;28.30;17.93
70730;BME280;58315;53.336;55.932;2023-05-21T07:28:44;100576.41;;;28.43;18.11
70730;BME280;58315;53.336;55.932;2023-05-21T07:31:10;100578.63;;;28.76;17.66
70730;BME280;58315;53.336;55.932;2023-05-21T07:33:44;100579.66;;;28.64;17.33
70730;BME280;58315;53.336;55.932;2023-05-21T07:36:11;100577.50;;;28.54;17.74
70730;BME280;58315;53.336;55.932;2023-05-21T07:38:38;100574.69;;;28.60;17.93
70730;BME280;58315;53.336;55.932;2023-05-21T07:41:06;100576.59;;;28.72;17.83
70730;BME280;58315;53.336;55.932;2023-05-21T07:43:32;100582.59;;;28.62;17.59
70730;BME280;58315;53.336;55.932;2023-05-21T07:45:59;100592.78;;;28.36;18.91
70730;BME280;58315;53.336;55.932;2023-05-21T07:48:26;100580.59;;;28.69;18.12
70730;BME280;58315;53.336;55.932;2023-05-21T07:50:57;100583.97;;;28.95;18.07
70730;BME280;58315;53.336;55.932;2023-05-21T07:53:24;100578.19;;;29.03;18.21
70730;BME280;58315;53.336;55.932;2023-05-21T07:55:50;100577.72;;;29.06;17.54
70730;BME280;58315;53.336;55.932;2023-05-21T07:58:21;100575.97;;;29.00;18.19
70730;BME280;58315;53.336;55.932;2023-05-21T08:00:48;100569.63;;;28.76;17.43
70730;BME280;58315;53.336;55.932;2023-05-21T08:03:17;100572.41;;;28.46;17.92
70730;BME280;58315;53.336;55.932;2023-05-21T08:05:44;100573.44;;;28.45;18.18
70730;BME280;58315;53.336;55.932;2023-05-21T08:08:18;100563.94;;;28.77;18.61
70730;BME280;58315;53.336;55.932;2023-05-21T08:10:46;100567.84;;;28.70;18.12
70730;BME280;58315;53.336;55.932;2023-05-21T08:13:14;100581.91;;;28.67;17.91
70730;BME280;58315;53.336;55.932;2023-05-21T08:15:41;100569.97;;;28.56;17.69
70730;BME280;58315;53.336;55.932;2023-05-21T08:18:08;100568.63;;;28.47;17.88
70730;BME280;58315;53.336;55.932;2023-05-21T08:20:35;100559.91;;;28.26;17.74
70730;BME280;58315;53.336;55.932;2023-05-21T08:23:01;100563.22;;;28.28;18.00
70730;BME280;58315;53.336;55.932;2023-05-21T08:25:34;100557.44;;;28.36;17.80
70730;BME280;58315;53.336;55.932;2023-05-21T08:28:02;100561.19;;;28.12;18.05
70730;BME280;58315;53.336;55.932;2023-05-21T08:30:29;100557.75;;;28.17;18.17
70730;BME280;58315;53.336;55.932;2023-05-21T08:32:56;100554.50;;;28.08;17.97
70730;BME280;58315;53.336;55.932;2023-05-21T08:35:22;100550.34;;;27.75;18.01
70730;BME280;58315;53.336;55.932;2023-05-21T08:38:05;100568.38;;;27.70;18.31
70730;BME280;58315;53.336;55.932;2023-05-21T08:40:53;100556.53;;;27.82;18.00
70730;BME280;58315;53.336;55.932;2023-05-21T08:43:25;100557.75;;;28.17;17.98
70730;BME280;58315;53.336;55.932;2023-05-21T08:45:53;100542.97;;;28.12;17.91
70730;BME280;58315;53.336;55.932;2023-05-21T08:48:31;100547.41;;;28.37;18.14
70730;BME280;58315;53.336;55.932;2023-05-21T08:50:58;100539.00;;;28.69;18.04
70730;BME280;58315;53.336;55.932;2023-05-21T08:53:34;100536.06;;;28.94;18.01
70730;BME280;58315;53.336;55.932;2023-05-21T08:56:03;100555.16;;;28.52;17.85
70730;BME280;58315;53.336;55.932;2023-05-21T08:58:40;100547.84;;;28.52;17.80
70730;BME280;58315;53.336;55.932;2023-05-21T09:01:11;100543.88;;;28.78;18.25
70730;BME280;58315;53.336;55.932;2023-05-21T09:03:39;100539.84;;;28.93;18.01
70730;BME280;58315;53.336;55.932;2023-05-21T09:06:11;100548.63;;;29.18;18.00
70730;BME280;58315;53.336;55.932;2023-05-21T09:08:43;100550.84;;;29.21;17.75
70730;BME280;58315;53.336;55.932;2023-05-21T09:11:21;100543.72;;;28.62;17.80
70730;BME280;58315;53.336;55.932;2023-05-21T09:13:54;100536.63;;;28.72;17.71
70730;BME280;58315;53.336;55.932;2023-05-21T09:16:31;100532.63;;;28.87;17.63
70730;BME280;58315;53.336;55.932;2023-05-21T09:18:58;100546.69;;;28.83;17.13
70730;BME280;58315;53.336;55.932;2023-05-21T09:21:31;100539.97;;;28.74;17.37
70730;BME280;58315;53.336;55.932;2023-05-21T09:24:23;100539.81;;;28.46;17.54
70730;BME280;58315;53.336;55.932;2023-05-21T09:26:49;100537.84;;;28.34;17.75
70730;BME280;58315;53.336;55.932;2023-05-21T09:29:16;100534.53;;;28.32;17.35
70730;BME280;58315;53.336;55.932;2023-05-21T09:31:44;100527.38;;;28.38;17.78
70730;BME280;58315;53.336;55.932;2023-05-21T09:34:11;100530.69;;;28.52;17.77
70730;BME280;58315;53.336;55.932;2023-05-21T09:36:40;100528.81;;;28.22;17.23
70730;BME280;58315;53.336;55.932;2023-05-21T09:39:06;100533.53;;;28.15;17.16
70730;BME280;58315;53.336;55.932;2023-05-21T09:41:34;100521.09;;;28.07;17.63
70730;BME280;58315;53.336;55.932;2023-05-21T09:44:03;100530.13;;;27.89;17.08
70730;BME280;58315;53.336;55.932;2023-05-21T09:46:37;100539.78;;;27.85;17.29
70730;BME280;58315;53.336;55.932;2023-05-21T09:49:05;100544.59;;;28.02;17.03
70730;BME280;58315;53.336;55.932;2023-05-21T09:51:31;100544.63;;;28.13;17.07
70730;BME280;58315;53.336;55.932;2023-05-21T09:53:57;100536.53;;;28.37;16.93
70730;BME280;58315;53.336;55.932;2023-05-21T09:56:26;100517.00;;;28.70;17.24
70730;BME280;58315;53.336;55.932;2023-05-21T09:58:55;100524.38;;;28.81;17.35
70730;BME280;58315;53.336;55.932;2023-05-21T10:01:25;100529.13;;;28.44;17.65
70730;BME280;58315;53.336;55.932;2023-05-21T10:03:57;100532.34;;;28.23;17.70
70730;BME280;58315;53.336;55.932;2023-05-21T10:06:26;100532.16;;;27.94;17.63
70730;BME280;58315;53.336;55.932;2023-05-21T10:08:54;100520.69;;;27.74;17.60
70730;BME280;58315;53.336;55.932;2023-05-21T10:11:25;100526.06;;;28.10;18.17
70730;BME280;58315;53.336;55.932;2023-05-21T10:14:16;100522.94;;;28.37;17.29
70730;BME280;58315;53.336;55.932;2023-05-21T10:16:46;100515.09;;;28.47;17.78
70730;BME280;58315;53.336;55.932;2023-05-21T10:19:14;100523.13;;;28.54;17.57
70730;BME280;58315;53.336;55.932;2023-05-21T10:21:40;100518.50;;;28.43;17.03
70730;BME280;58315;53.336;55.932;2023-05-21T10:24:08;100515.91;;;28.48;17.86
70730;BME280;58315;53.336;55.932;2023-05-21T10:26:35;100513.25;;;28.83;17.50
70730;BME280;58315;53.336;55.932;2023-05-21T10:29:03;100515.72;;;28.96;17.53
70730;BME280;58315;53.336;55.932;2023-05-21T10:31:30;100520.94;;;28.86;17.47
70730;BME280;58315;53.336;55.932;2023-05-21T10:33:59;100514.66;;;28.86;17.66
70730;BME280;58315;53.336;55.932;2023-05-21T10:36:29;100515.84;;;28.78;17.42
70730;BME280;58315;53.336;55.932;2023-05-21T10:38:57;100511.09;;;28.73;17.21
70730;BME280;58315;53.336;55.932;2023-05-21T10:41:26;100521.16;;;28.73;17.30
70730;BME280;58315;53.336;55.932;2023-05-21T10:58:09;100516.16;;;28.58;16.81
70730;BME280;58315;53.336;55.932;2023-05-21T11:00:41;100509.44;;;28.49;17.38
70730;BME280;58315;53.336;55.932;2023-05-21T11:03:10;100510.88;;;28.63;17.43
70730;BME280;58315;53.336;55.932;2023-05-21T11:05:56;100513.00;;;28.61;16.78
70730;BME280;58315;53.336;55.932;2023-05-21T11:08:30;100512.16;;;28.60;16.61
70730;BME280;58315;53.336;55.932;2023-05-21T11:10:58;100504.13;;;28.54;17.28
70730;BME280;58315;53.336;55.932;2023-05-21T11:13:26;100522.31;;;28.65;17.02
70730;BME280;58315;53.336;55.932;2023-05-21T11:26:20;100498.22;;;28.80;17.35
70730;BME280;58315;53.336;55.932;2023-05-21T11:31:32;100516.16;;;28.58;17.27
70730;BME280;58315;53.336;55.932;2023-05-21T11:36:46;100500.66;;;28.47;16.86
70730;BME280;58315;53.336;55.932;2023-05-21T11:39:16;100506.22;;;28.52;17.30
70730;BME280;58315;53.336;55.932;2023-05-21T11:44:44;100508.88;;;28.82;17.21
70730;BME280;58315;53.336;55.932;2023-05-21T11:47:12;100508.72;;;28.65;16.99
70730;BME280;58315;53.336;55.932;2023-05-21T11:49:40;100510.97;;;28.80;16.83
70730;BME280;58315;53.336;55.932;2023-05-21T11:52:08;100513.22;;;28.95;16.79
70730;BME280;58315;53.336;55.932;2023-05-21T11:54:49;100511.03;;;29.03;16.82
70730;BME280;58315;53.336;55.932;2023-05-21T11:57:17;100511.34;;;28.83;16.97
70730;BME280;58315;53.336;55.932;2023-05-21T11:59:45;100509.81;;;28.88;16.85
70730;BME280;58315;53.336;55.932;2023-05-21T12:02:15;100506.06;;;29.00;16.77
70730;BME280;58315;53.336;55.932;2023-05-21T12:04:43;100505.81;;;29.02;17.08
70730;BME280;58315;53.336;55.932;2023-05-21T12:07:10;100509.22;;;28.86;17.47
70730;BME280;58315;53.336;55.932;2023-05-21T12:09:40;100513.94;;;28.78;16.83
70730;BME280;58315;53.336;55.932;2023-05-21T12:12:11;100511.09;;;28.73;16.72
70730;BME280;58315;53.336;55.932;2023-05-21T12:14:38;100511.69;;;28.75;17.06
70730;BME280;58315;53.336;55.932;2023-05-21T12:17:05;100509.91;;;28.69;17.35
70730;BME280;58315;53.336;55.932;2023-05-21T12:19:36;100508.84;;;28.70;16.49
70730;BME280;58315;53.336;55.932;2023-05-21T12:22:03;100504.38;;;28.88;16.57
70730;BME280;58315;53.336;55.932;2023-05-21T12:24:30;100505.34;;;29.05;16.40
70730;BME280;58315;53.336;55.932;2023-05-21T12:26:58;100510.63;;;29.23;16.38
70730;BME280;58315;53.336;55.932;2023-05-21T12:29:25;100515.34;;;29.28;16.70
70730;BME280;58315;53.336;55.932;2023-05-21T12:31:52;100509.69;;;29.18;16.87
70730;BME280;58315;53.336;55.932;2023-05-21T12:34:46;100513.69;;;29.39;16.95
70730;BME280;58315;53.336;55.932;2023-05-21T12:39:43;100517.41;;;29.09;16.47
70730;BME280;58315;53.336;55.932;2023-05-21T12:42:10;100515.88;;;29.01;16.28
70730;BME280;58315;53.336;55.932;2023-05-21T12:44:38;100519.53;;;29.07;16.59
70730;BME280;58315;53.336;55.932;2023-05-21T12:47:05;100513.03;;;29.08;16.62
70730;BME280;58315;53.336;55.932;2023-05-21T12:49:45;100513.03;;;29.08;16.46
70730;BME280;58315;53.336;55.932;2023-05-21T12:52:16;100504.94;;;29.25;16.41
70730;BME280;58315;53.336;55.932;2023-05-21T12:54:45;100512.41;;;29.29;16.09
70730;BME280;58315;53.336;55.932;2023-05-21T12:57:17;100506.03;;;29.12;16.27
70730;BME280;58315;53.336;55.932;2023-05-21T12:59:46;100502.13;;;29.20;16.50
70730;BME280;58315;53.336;55.932;2023-05-21T13:02:18;100507.44;;;29.26;16.30
70730;BME280;58315;53.336;55.932;2023-05-21T13:04:45;100504.75;;;29.15;16.75
70730;BME280;58315;53.336;55.932;2023-05-21T13:07:12;100501.88;;;28.98;16.81
70730;BME280;58315;53.336;55.932;2023-05-21T13:09:39;100504.84;;;28.96;17.02
70730;BME280;58315;53.336;55.932;2023-05-21T13:12:05;100506.72;;;28.96;16.95
70730;BME280;58315;53.336;55.932;2023-05-21T13:14:31;100502.75;;;28.98;16.78
70730;BME280;58315;53.336;55.932;2023-05-21T13:16:57;100497.75;;;28.83;16.91
70730;BME280;58315;53.336;55.932;2023-05-21T13:19:23;100505.44;;;28.75;16.62
70730;BME280;58315;53.336;55.932;2023-05-21T13:21:50;100508.38;;;28.50;16.75
70730;BME280;58315;53.336;55.932;2023-05-21T13:24:16;100505.38;;;28.40;16.59